Beaver Island, Canada
Current Conditions -  °F | °C
As of 12:32 PM on Wednesday 28 Jan 2015 (Local Time) from CYHZ Reporting Station
Moderate Fog Moderate Fog  
Wind Chill: 26°   Ceiling: 100
Heat Index: 32°   Visibility: 0.25mi
Dew Point: 30°   Wind: 7mph
Humidity: 93%   Direction: 360°N
Pressure: 29.54"   Gusts: NA
Location:  44.75°N, 62.8°W
Report Text: CYHZ 281632Z 36006KT 1/4SM R14/1800V2200FT/N R23/3000FT/N FZFG VV001 M00/M01 A2954 RMK FG8 SLP010
Loading
Personal Weather Stations






























Interactive Weather Map New forecast layout! Learn more

10-Day Weather Forecast

Advertisements
Track Severe Weather on mobile